createdAt,value
2018-07-29T00:00:22.619Z,5.73
2018-07-29T00:02:51.388Z,5.90
2018-07-29T00:05:19.515Z,8.70
2018-07-29T00:07:48.721Z,6.43
2018-07-29T00:10:17.210Z,5.30
2018-07-29T00:12:46.004Z,5.43
2018-07-29T00:15:14.140Z,5.50
2018-07-29T00:17:43.057Z,5.20
2018-07-29T00:20:12.311Z,4.50
2018-07-29T00:22:41.040Z,4.90
2018-07-29T00:25:09.556Z,4.73
2018-07-29T00:27:38.359Z,4.73
2018-07-29T00:30:07.140Z,4.20
2018-07-29T00:32:35.312Z,4.73
2018-07-29T00:35:04.328Z,5.87
2018-07-29T00:37:32.532Z,5.30
2018-07-29T00:40:02.725Z,5.27
2018-07-29T00:42:32.096Z,6.37
2018-07-29T00:45:00.013Z,5.83
2018-07-29T00:47:30.592Z,5.20
2018-07-29T00:49:59.733Z,6.13
2018-07-29T00:52:28.292Z,5.50
2018-07-29T00:54:56.814Z,4.83
2018-07-29T00:57:25.312Z,6.70
2018-07-29T00:59:53.492Z,5.10
2018-07-29T01:02:22.736Z,4.30
2018-07-29T01:04:51.606Z,4.87
2018-07-29T01:07:20.751Z,4.60
2018-07-29T01:09:48.908Z,3.70
2018-07-29T01:12:17.444Z,3.63
2018-07-29T01:14:45.623Z,4.17
2018-07-29T01:17:14.122Z,5.53
2018-07-29T01:19:42.256Z,4.30
2018-07-29T01:22:10.436Z,4.23
2018-07-29T01:24:39.481Z,2.70
2018-07-29T01:27:08.916Z,3.70
2018-07-29T01:29:37.073Z,4.50
2018-07-29T01:32:05.248Z,4.03
2018-07-29T01:34:33.536Z,4.23
2018-07-29T01:37:02.672Z,4.00
2018-07-29T01:39:31.174Z,4.37
2018-07-29T01:42:00.321Z,3.90
2018-07-29T01:44:29.477Z,5.87
2018-07-29T01:46:58.509Z,4.60
2018-07-29T01:49:26.667Z,5.30
2018-07-29T01:51:56.095Z,5.17
2018-07-29T01:54:24.224Z,6.83
2018-07-29T01:56:53.397Z,4.83
2018-07-29T01:59:22.570Z,5.87
2018-07-29T02:01:51.856Z,5.17
2018-07-29T02:04:20.654Z,5.30
2018-07-29T02:06:49.213Z,4.90
2018-07-29T02:09:18.075Z,6.17
2018-07-29T02:11:47.637Z,6.70
2018-07-29T02:14:18.436Z,5.60
2018-07-29T02:16:46.835Z,5.43
2018-07-29T02:19:15.028Z,6.20
2018-07-29T02:21:43.201Z,6.00
2018-07-29T02:24:12.384Z,7.20
2018-07-29T02:26:42.412Z,8.40
2018-07-29T02:29:10.837Z,7.57
2018-07-29T02:31:39.474Z,7.37
2018-07-29T02:34:07.592Z,8.47
2018-07-29T02:36:36.592Z,8.30
2018-07-29T02:39:07.633Z,6.20
2018-07-29T02:41:35.844Z,7.33
2018-07-29T02:44:03.976Z,6.97
2018-07-29T02:46:32.353Z,6.20
2018-07-29T02:49:01.895Z,7.80
2018-07-29T02:51:31.668Z,8.30
2018-07-29T02:54:00.239Z,8.50
2018-07-29T02:56:29.349Z,7.77
2018-07-29T02:58:58.209Z,9.10
2018-07-29T03:01:26.781Z,8.93
2018-07-29T03:03:54.925Z,8.27
2018-07-29T03:06:23.421Z,9.33
2018-07-29T03:08:52.812Z,7.80
2018-07-29T03:11:20.957Z,12.10
2018-07-29T03:13:50.376Z,8.43
2018-07-29T03:16:18.507Z,8.17
2018-07-29T03:18:46.708Z,7.60
2018-07-29T03:21:14.849Z,7.67
2018-07-29T03:23:43.050Z,11.27
2018-07-29T03:26:11.191Z,9.13
2018-07-29T03:28:39.580Z,10.20
2018-07-29T03:31:08.873Z,9.93
2018-07-29T03:33:37.420Z,9.97
2018-07-29T03:36:05.900Z,11.03
2018-07-29T03:38:34.691Z,9.47
2018-07-29T03:41:05.289Z,8.90
2018-07-29T03:43:34.091Z,8.43
2018-07-29T03:46:02.551Z,8.70
2018-07-29T03:48:31.044Z,11.43
2018-07-29T03:50:59.519Z,8.83
2018-07-29T03:53:27.665Z,7.40
2018-07-29T03:55:56.436Z,8.40
2018-07-29T03:58:24.630Z,8.17
2018-07-29T04:00:54.557Z,9.37
2018-07-29T04:03:22.977Z,8.67
2018-07-29T04:05:51.888Z,8.47
2018-07-29T04:08:20.103Z,9.80
2018-07-29T04:10:48.716Z,9.93
2018-07-29T04:13:16.890Z,7.53
2018-07-29T04:15:46.429Z,7.67
2018-07-29T04:18:15.416Z,8.73
2018-07-29T04:20:43.620Z,8.90
2018-07-29T04:23:12.242Z,8.27
2018-07-29T04:25:41.029Z,8.10
2018-07-29T04:28:09.186Z,7.23
2018-07-29T04:30:38.217Z,9.63
2018-07-29T04:33:07.630Z,8.33
2018-07-29T04:35:36.728Z,7.70
2018-07-29T04:38:06.032Z,7.60
2018-07-29T04:40:34.541Z,7.33
2018-07-29T04:43:03.072Z,8.80
2018-07-29T04:45:32.219Z,8.30
2018-07-29T04:48:00.393Z,9.57
2018-07-29T04:50:29.264Z,10.30
2018-07-29T04:52:57.765Z,9.70
2018-07-29T04:55:25.961Z,9.83
2018-07-29T04:57:54.145Z,7.77
2018-07-29T05:00:22.336Z,6.03
2018-07-29T05:02:50.965Z,6.37
2018-07-29T05:05:20.316Z,6.10
2018-07-29T05:07:48.495Z,7.73
2018-07-29T05:10:18.146Z,6.70
2018-07-29T05:12:46.293Z,7.07
2018-07-29T05:15:15.929Z,8.00
2018-07-29T05:17:44.226Z,7.03
2018-07-29T05:20:12.975Z,6.80
2018-07-29T05:22:43.038Z,7.17
2018-07-29T05:25:11.234Z,6.90
2018-07-29T05:27:39.439Z,7.10
2018-07-29T05:30:08.563Z,7.20
2018-07-29T05:32:37.882Z,7.77
2018-07-29T05:35:08.204Z,7.13
2018-07-29T05:37:36.572Z,7.90
2018-07-29T05:40:05.194Z,6.10
2018-07-29T05:42:34.853Z,5.50
2018-07-29T05:45:03.051Z,6.40
2018-07-29T05:47:31.838Z,7.00
2018-07-29T05:49:59.984Z,6.70
2018-07-29T05:52:29.717Z,7.00
2018-07-29T05:54:58.371Z,6.70
2018-07-29T05:57:26.248Z,8.27
2018-07-29T05:59:54.455Z,6.63
2018-07-29T06:02:22.641Z,6.50
2018-07-29T06:04:52.536Z,6.00
2018-07-29T06:07:22.348Z,6.33
2018-07-29T06:09:50.519Z,6.93
2018-07-29T06:12:18.684Z,7.20
2018-07-29T06:14:46.870Z,7.43
2018-07-29T06:17:15.016Z,7.70
2018-07-29T06:19:44.711Z,7.50
2018-07-29T06:22:12.892Z,11.23
2018-07-29T06:24:42.522Z,7.07
2018-07-29T06:27:10.708Z,8.23
2018-07-29T06:29:39.108Z,6.83
2018-07-29T06:32:07.310Z,7.10
2018-07-29T06:34:35.572Z,7.30
2018-07-29T06:37:03.726Z,7.23
2018-07-29T06:39:33.473Z,6.80
2018-07-29T06:42:01.840Z,7.10
2018-07-29T06:44:30.009Z,6.73
2018-07-29T06:46:58.162Z,6.27
2018-07-29T06:49:27.516Z,6.83
2018-07-29T06:51:55.664Z,6.70
2018-07-29T06:54:24.103Z,6.33
2018-07-29T06:56:53.760Z,5.80
2018-07-29T06:59:22.305Z,7.60
2018-07-29T07:01:50.604Z,5.80
2018-07-29T07:04:19.265Z,5.90
2018-07-29T07:06:47.423Z,5.70
2018-07-29T07:09:15.540Z,5.90
2018-07-29T07:11:43.710Z,5.30
2018-07-29T07:14:12.752Z,5.90
2018-07-29T07:16:40.880Z,5.20
2018-07-29T07:19:10.049Z,6.73
2018-07-29T07:21:39.497Z,5.87
2018-07-29T07:24:08.208Z,6.47
2018-07-29T07:26:36.377Z,5.70
2018-07-29T07:29:04.504Z,6.20
2018-07-29T07:31:32.664Z,5.93
2018-07-29T07:34:01.711Z,5.70
2018-07-29T07:36:30.164Z,5.13
2018-07-29T07:38:59.639Z,6.90
2018-07-29T07:41:27.840Z,4.37
2018-07-29T07:43:56.025Z,3.37
2018-07-29T07:46:24.712Z,3.10
2018-07-29T07:48:54.017Z,5.50
2018-07-29T07:51:22.162Z,3.47
2018-07-29T07:53:50.325Z,3.20
2018-07-29T07:56:18.478Z,5.73
2018-07-29T07:58:46.854Z,3.20
2018-07-29T08:01:16.112Z,5.33
2018-07-29T08:03:44.256Z,4.07
2018-07-29T08:06:13.679Z,5.07
2018-07-29T08:08:42.859Z,4.43
2018-07-29T08:11:13.160Z,5.00
2018-07-29T08:13:41.784Z,4.00
2018-07-29T08:16:10.062Z,4.77
2018-07-29T08:18:38.163Z,4.70
2018-07-29T08:21:06.337Z,5.20
2018-07-29T08:23:34.695Z,5.43
2018-07-29T08:26:03.780Z,3.73
2018-07-29T08:28:33.636Z,3.27
2018-07-29T08:31:02.541Z,5.00
2018-07-29T08:33:30.775Z,4.83
2018-07-29T08:35:59.108Z,7.10
2018-07-29T08:38:27.968Z,3.70
2018-07-29T08:40:56.116Z,4.03
2018-07-29T08:43:24.752Z,3.97
2018-07-29T08:45:53.352Z,3.70
2018-07-29T08:48:23.279Z,3.53
2018-07-29T08:50:51.821Z,4.23
2018-07-29T08:53:20.296Z,4.20
2018-07-29T08:55:48.481Z,4.63
2018-07-29T08:58:16.635Z,3.20
2018-07-29T09:00:44.828Z,4.20
2018-07-29T09:03:13.520Z,4.00
2018-07-29T09:05:41.637Z,5.30
2018-07-29T09:08:09.828Z,4.73
2018-07-29T09:10:39.805Z,2.13
2018-07-29T09:13:09.852Z,3.13
2018-07-29T09:15:38.487Z,4.93
2018-07-29T09:18:07.581Z,4.10
2018-07-29T09:20:35.729Z,3.43
2018-07-29T09:23:03.864Z,3.63
2018-07-29T09:25:32.688Z,2.73
2018-07-29T09:28:01.133Z,3.87
2018-07-29T09:30:29.441Z,3.23
2018-07-29T09:32:58.305Z,2.83
2018-07-29T09:35:26.820Z,2.97
2018-07-29T09:37:54.710Z,4.37
2018-07-29T09:40:22.914Z,3.80
2018-07-29T09:42:52.398Z,3.70
2018-07-29T09:45:21.070Z,4.73
2018-07-29T09:47:49.816Z,3.83
2018-07-29T09:50:18.742Z,4.00
2018-07-29T09:52:46.917Z,4.17
2018-07-29T09:55:15.552Z,2.63
2018-07-29T09:57:44.340Z,2.90
2018-07-29T10:00:12.805Z,2.80
2018-07-29T10:02:43.071Z,3.23
2018-07-29T10:05:12.031Z,3.30
2018-07-29T10:07:40.168Z,3.00
2018-07-29T10:10:08.382Z,3.57
2018-07-29T10:12:37.221Z,4.00
2018-07-29T10:15:05.868Z,4.47
2018-07-29T10:17:34.715Z,4.67
2018-07-29T10:20:02.896Z,3.80
2018-07-29T10:22:31.047Z,3.97
2018-07-29T10:24:59.228Z,3.77
2018-07-29T10:27:27.353Z,3.77
2018-07-29T10:29:56.651Z,3.97
2018-07-29T10:32:25.215Z,3.97
2018-07-29T10:34:54.027Z,5.07
2018-07-29T10:37:23.068Z,4.17
2018-07-29T10:39:51.996Z,4.20
2018-07-29T10:42:21.144Z,4.43
2018-07-29T10:44:49.288Z,4.60
2018-07-29T10:47:18.171Z,6.47
2018-07-29T10:49:51.576Z,5.10
2018-07-29T10:52:20.196Z,5.93
2018-07-29T10:54:48.424Z,5.47
2018-07-29T10:57:17.451Z,4.90
2018-07-29T10:59:45.961Z,5.00
2018-07-29T11:02:15.208Z,5.23
2018-07-29T11:04:44.710Z,4.63
2018-07-29T11:07:12.839Z,6.13
2018-07-29T11:09:41.016Z,5.07
2018-07-29T11:12:09.181Z,4.80
2018-07-29T11:14:37.330Z,4.87
2018-07-29T11:17:05.776Z,9.63
2018-07-29T11:19:34.572Z,5.23
2018-07-29T11:22:03.744Z,5.93
2018-07-29T11:24:31.888Z,6.30
2018-07-29T11:27:02.542Z,4.13
2018-07-29T11:29:30.678Z,4.53
2018-07-29T11:31:59.365Z,4.00
2018-07-29T11:34:28.156Z,5.40
2018-07-29T11:36:56.333Z,4.87
2018-07-29T11:39:24.516Z,3.83
2018-07-29T11:41:53.262Z,4.60
2018-07-29T11:44:21.404Z,4.40
2018-07-29T11:46:49.596Z,4.43
2018-07-29T11:49:17.820Z,3.53
2018-07-29T11:51:46.036Z,4.77
2018-07-29T11:54:14.530Z,4.27
2018-07-29T11:56:42.653Z,4.37
2018-07-29T11:59:11.144Z,4.60
2018-07-29T12:01:40.225Z,5.63
2018-07-29T12:04:09.066Z,4.03
2018-07-29T12:06:37.200Z,4.10
2018-07-29T12:09:07.812Z,4.13
2018-07-29T12:11:35.964Z,4.10
2018-07-29T12:14:04.172Z,3.90
2018-07-29T12:16:32.903Z,4.80
2018-07-29T12:19:01.047Z,4.47
2018-07-29T12:21:30.456Z,3.30
2018-07-29T12:23:59.800Z,3.87
2018-07-29T12:26:29.948Z,4.20
2018-07-29T12:28:58.092Z,3.23
2018-07-29T12:31:27.540Z,3.90
2018-07-29T12:33:55.668Z,3.97
2018-07-29T12:36:24.820Z,3.50
2018-07-29T12:38:53.673Z,4.27
2018-07-29T12:41:21.875Z,3.23
2018-07-29T12:43:52.128Z,3.27
2018-07-29T12:46:20.328Z,3.60
2018-07-29T12:48:48.925Z,3.80
2018-07-29T12:51:17.107Z,3.90
2018-07-29T12:53:45.568Z,3.03
2018-07-29T12:56:14.320Z,3.57
2018-07-29T12:58:42.828Z,3.47
2018-07-29T13:01:11.936Z,3.43
2018-07-29T13:03:40.136Z,4.00
2018-07-29T13:06:08.452Z,3.20
2018-07-29T13:08:36.480Z,3.23
2018-07-29T13:11:04.661Z,3.70
2018-07-29T13:13:34.628Z,3.50
2018-07-29T13:16:02.807Z,3.63
2018-07-29T13:18:30.962Z,3.50
2018-07-29T13:20:59.163Z,3.13
2018-07-29T13:23:27.341Z,3.60
2018-07-29T13:25:57.015Z,3.47
2018-07-29T13:28:25.192Z,2.90
2018-07-29T13:30:53.448Z,5.50
2018-07-29T13:33:22.188Z,3.00
2018-07-29T13:35:52.560Z,3.77
2018-07-29T13:38:22.673Z,4.03
2018-07-29T13:40:51.163Z,4.30
2018-07-29T13:43:20.028Z,2.70
2018-07-29T13:45:48.176Z,2.97
2018-07-29T13:48:16.340Z,3.60
2018-07-29T13:50:44.496Z,3.20
2018-07-29T13:53:13.612Z,3.63
2018-07-29T13:55:42.248Z,3.70
2018-07-29T13:58:10.408Z,3.77
2018-07-29T14:00:39.968Z,4.63
2018-07-29T14:03:08.116Z,4.07
2018-07-29T14:05:36.243Z,3.20
2018-07-29T14:08:04.700Z,3.70
2018-07-29T14:10:32.847Z,4.73
2018-07-29T14:13:03.029Z,3.60
2018-07-29T14:15:31.200Z,4.10
2018-07-29T14:17:59.748Z,3.70
2018-07-29T14:20:29.931Z,3.80
2018-07-29T14:22:58.088Z,4.43
2018-07-29T14:25:27.684Z,3.87
2018-07-29T14:27:56.578Z,3.20
2018-07-29T14:30:25.056Z,3.30
2018-07-29T14:32:53.224Z,3.87
2018-07-29T14:35:21.388Z,3.30
2018-07-29T14:37:50.489Z,3.43
2018-07-29T14:40:18.603Z,3.70
2018-07-29T14:42:47.028Z,4.27
2018-07-29T14:45:16.482Z,3.90
2018-07-29T14:47:44.568Z,4.93
2018-07-29T14:50:13.114Z,4.07
2018-07-29T14:52:41.256Z,3.13
2018-07-29T14:55:09.926Z,3.77
2018-07-29T14:57:38.592Z,3.70
2018-07-29T15:00:07.766Z,4.00
2018-07-29T15:02:35.931Z,3.87
2018-07-29T15:05:04.964Z,3.87
2018-07-29T15:07:33.149Z,3.37
2018-07-29T15:10:01.904Z,3.50
2018-07-29T15:12:30.460Z,3.30
2018-07-29T15:14:58.583Z,3.77
2018-07-29T15:17:26.811Z,3.03
2018-07-29T15:19:55.484Z,3.03
2018-07-29T15:22:24.344Z,6.43
2018-07-29T15:24:52.500Z,4.87
2018-07-29T15:27:20.675Z,3.20
2018-07-29T15:29:49.209Z,2.50
2018-07-29T15:32:17.340Z,3.27
2018-07-29T15:34:45.507Z,3.50
2018-07-29T15:37:14.139Z,3.27
2018-07-29T15:39:42.291Z,4.10
2018-07-29T15:42:11.795Z,3.00
2018-07-29T15:44:39.936Z,4.90
2018-07-29T15:47:08.732Z,3.00
2018-07-29T15:49:37.359Z,2.80
2018-07-29T15:52:05.486Z,3.20
2018-07-29T15:54:34.235Z,3.47
2018-07-29T15:57:02.890Z,4.70
2018-07-29T15:59:31.010Z,3.30
2018-07-29T16:01:59.201Z,4.00
2018-07-29T16:04:27.727Z,3.07
2018-07-29T16:06:55.880Z,3.47
2018-07-29T16:09:25.000Z,3.23
2018-07-29T16:11:53.148Z,3.47
2018-07-29T16:14:21.511Z,4.80
2018-07-29T16:16:49.687Z,3.50
2018-07-29T16:19:17.907Z,3.30
2018-07-29T16:21:46.012Z,2.70
2018-07-29T16:24:14.640Z,2.93
2018-07-29T16:26:42.844Z,3.40
2018-07-29T16:29:10.988Z,3.50
2018-07-29T16:31:39.489Z,2.97
2018-07-29T16:34:08.532Z,2.80
2018-07-29T16:36:38.906Z,3.50
2018-07-29T16:39:09.832Z,3.20
2018-07-29T16:41:38.148Z,3.40
2018-07-29T16:44:06.313Z,3.30
2018-07-29T16:46:40.601Z,2.83
2018-07-29T16:49:08.832Z,2.73
2018-07-29T16:51:37.108Z,2.83
2018-07-29T16:54:05.955Z,4.20
2018-07-29T16:56:34.092Z,3.30
2018-07-29T16:59:02.304Z,2.90
2018-07-29T17:01:30.764Z,2.80
2018-07-29T17:03:59.140Z,3.10
2018-07-29T17:06:31.020Z,2.60
2018-07-29T17:09:00.129Z,3.10
2018-07-29T17:11:31.304Z,4.03
2018-07-29T17:13:59.680Z,2.87
2018-07-29T17:16:28.151Z,3.60
2018-07-29T17:18:56.740Z,3.07
2018-07-29T17:21:24.874Z,2.60
2018-07-29T17:23:55.695Z,2.70
2018-07-29T17:26:24.354Z,2.90
2018-07-29T17:28:54.680Z,3.03
2018-07-29T17:31:23.448Z,3.93
2018-07-29T17:33:52.968Z,3.00
2018-07-29T17:36:21.956Z,4.90
2018-07-29T17:38:50.182Z,2.83
2018-07-29T17:41:18.656Z,3.00
2018-07-29T17:43:49.039Z,4.10
2018-07-29T17:46:17.203Z,2.93
2018-07-29T17:48:46.036Z,3.00
2018-07-29T17:51:15.346Z,2.23
2018-07-29T17:53:44.177Z,2.13
2018-07-29T17:56:13.005Z,4.20
2018-07-29T17:58:41.878Z,2.93
2018-07-29T18:01:12.238Z,3.13
2018-07-29T18:03:41.904Z,2.80
2018-07-29T18:06:10.100Z,3.10
2018-07-29T18:08:39.017Z,2.70
2018-07-29T18:11:07.208Z,2.37
2018-07-29T18:13:36.231Z,2.97
2018-07-29T18:16:05.900Z,2.43
2018-07-29T18:18:34.729Z,3.10
2018-07-29T18:21:02.965Z,3.03
2018-07-29T18:23:32.113Z,3.17
2018-07-29T18:26:01.188Z,3.20
2018-07-29T18:28:29.641Z,2.90
2018-07-29T18:30:59.205Z,2.90
2018-07-29T18:33:28.764Z,2.87
2018-07-29T18:35:57.293Z,2.50
2018-07-29T18:38:26.057Z,2.90
2018-07-29T18:40:55.042Z,2.87
2018-07-29T18:43:23.260Z,2.97
2018-07-29T18:45:51.485Z,3.37
2018-07-29T18:48:20.366Z,2.90
2018-07-29T18:50:48.616Z,2.70
2018-07-29T18:53:16.833Z,2.50
2018-07-29T18:55:45.384Z,2.70
2018-07-29T18:58:13.585Z,3.00
2018-07-29T19:00:45.667Z,2.73
2018-07-29T19:03:15.225Z,3.40
2018-07-29T19:05:43.692Z,3.10
2018-07-29T19:08:12.578Z,3.57
2018-07-29T19:10:41.179Z,6.70
2018-07-29T19:13:11.827Z,2.93
2018-07-29T19:15:41.992Z,3.60
2018-07-29T19:18:11.765Z,6.37
2018-07-29T19:20:40.029Z,3.33
2018-07-29T19:23:08.446Z,4.17
2018-07-29T19:25:37.196Z,3.87
2018-07-29T19:28:05.728Z,3.47
2018-07-29T19:30:34.292Z,3.20
2018-07-29T19:33:02.444Z,3.30
2018-07-29T19:35:31.875Z,3.50
2018-07-29T19:38:00.041Z,4.63
2018-07-29T19:40:28.264Z,4.10
2018-07-29T19:42:56.656Z,3.10
2018-07-29T19:45:24.836Z,3.60
2018-07-29T19:47:54.024Z,4.37
2018-07-29T19:50:22.601Z,3.83
2018-07-29T19:52:50.949Z,4.73
2018-07-29T19:55:19.069Z,4.80
2018-07-29T19:57:48.030Z,3.50
2018-07-29T20:00:16.180Z,3.20
2018-07-29T20:02:44.336Z,4.57
2018-07-29T20:05:12.517Z,3.17
2018-07-29T20:07:41.049Z,3.30
2018-07-29T20:10:11.076Z,3.00
2018-07-29T20:12:39.238Z,3.17
2018-07-29T20:15:08.242Z,3.37
2018-07-29T20:17:36.734Z,3.67
2018-07-29T20:20:06.964Z,4.40
2018-07-29T20:22:36.078Z,4.00
2018-07-29T20:25:06.213Z,3.80
2018-07-29T20:27:34.924Z,5.43
2018-07-29T20:30:05.662Z,2.57
2018-07-29T20:32:33.764Z,3.80
2018-07-29T20:35:01.934Z,2.90
2018-07-29T20:37:30.616Z,2.70
2018-07-29T20:39:58.822Z,3.10
2018-07-29T20:42:33.081Z,3.20
2018-07-29T20:45:02.608Z,3.40
2018-07-29T20:47:33.618Z,3.00
2018-07-29T20:50:02.566Z,2.83
2018-07-29T20:52:31.453Z,2.60
2018-07-29T20:54:59.623Z,2.90
2018-07-29T20:57:29.040Z,2.83
2018-07-29T20:59:58.348Z,2.83
2018-07-29T21:02:26.514Z,4.17
2018-07-29T21:04:56.708Z,3.23
2018-07-29T21:07:24.871Z,3.00
2018-07-29T21:09:53.611Z,3.13
2018-07-29T21:12:22.552Z,3.00
2018-07-29T21:14:51.205Z,4.60
2018-07-29T21:17:19.518Z,3.30
2018-07-29T21:19:48.300Z,6.00
2018-07-29T21:22:16.561Z,2.63
2018-07-29T21:24:44.745Z,2.83
2018-07-29T21:27:13.767Z,3.97
2018-07-29T21:29:42.959Z,4.30
2018-07-29T21:32:11.916Z,2.87
2018-07-29T21:34:40.108Z,2.73
2018-07-29T21:37:09.588Z,3.07
2018-07-29T21:39:38.234Z,3.13
2018-07-29T21:42:07.372Z,3.13
2018-07-29T21:44:35.596Z,2.50
2018-07-29T21:47:04.292Z,4.53
2018-07-29T21:49:33.098Z,3.30
2018-07-29T21:52:01.294Z,3.43
2018-07-29T21:54:29.878Z,3.30
2018-07-29T21:56:58.140Z,3.30
2018-07-29T21:59:26.428Z,2.83
2018-07-29T22:01:54.589Z,3.50
2018-07-29T22:04:22.813Z,3.10
2018-07-29T22:06:50.996Z,3.20
2018-07-29T22:09:19.213Z,3.50
2018-07-29T22:11:47.995Z,3.60
2018-07-29T22:14:16.607Z,3.40
2018-07-29T22:16:45.399Z,3.30
2018-07-29T22:19:15.405Z,3.50
2018-07-29T22:21:44.621Z,3.60
2018-07-29T22:24:12.766Z,3.13
2018-07-29T22:26:47.768Z,2.77
2018-07-29T22:29:21.888Z,3.43
2018-07-29T22:31:55.969Z,2.83
2018-07-29T22:34:26.687Z,3.10
2018-07-29T22:36:55.201Z,3.87
2018-07-29T22:39:23.961Z,3.20
2018-07-29T22:41:54.384Z,2.93
2018-07-29T22:44:22.870Z,3.50
2018-07-29T22:46:51.023Z,2.90
2018-07-29T22:49:20.459Z,2.93
2018-07-29T22:51:49.244Z,3.77
2018-07-29T22:54:18.596Z,3.00
2018-07-29T22:56:47.171Z,3.73
2018-07-29T22:59:15.352Z,3.10
2018-07-29T23:01:44.077Z,3.40
2018-07-29T23:04:16.997Z,4.07
2018-07-29T23:06:46.056Z,3.17
2018-07-29T23:09:15.510Z,3.47
2018-07-29T23:11:43.664Z,3.70
2018-07-29T23:14:12.233Z,4.10
2018-07-29T23:16:40.765Z,3.70
2018-07-29T23:19:09.880Z,2.67
2018-07-29T23:21:38.043Z,5.20
2018-07-29T23:24:06.504Z,2.90
2018-07-29T23:26:34.992Z,3.40
2018-07-29T23:29:03.093Z,3.60
2018-07-29T23:31:31.532Z,3.40
2018-07-29T23:34:00.172Z,2.90
2018-07-29T23:36:37.011Z,3.13
2018-07-29T23:39:07.190Z,3.10
2018-07-29T23:41:36.210Z,2.80
2018-07-29T23:44:04.332Z,3.57
2018-07-29T23:46:34.445Z,4.43
2018-07-29T23:49:02.660Z,3.47
2018-07-29T23:51:31.873Z,2.90
2018-07-29T23:54:00.690Z,3.47
2018-07-29T23:56:29.228Z,3.23
2018-07-29T23:58:57.376Z,3.23
